createdAt,value
2022-12-05T00:00:56.780Z,15.00
2022-12-05T00:05:58.160Z,13.68
2022-12-05T00:10:59.582Z,14.52
2022-12-05T00:16:00.952Z,13.35
2022-12-05T00:21:02.409Z,12.15
2022-12-05T00:26:05.436Z,13.80
2022-12-05T00:31:12.080Z,13.50
2022-12-05T00:36:14.903Z,12.93
2022-12-05T00:41:18.404Z,12.18
2022-12-05T00:46:21.823Z,13.25
2022-12-05T00:51:28.251Z,13.20
2022-12-05T00:56:31.178Z,13.25
2022-12-05T01:01:34.193Z,14.52
2022-12-05T01:06:35.740Z,13.77
2022-12-05T01:11:41.254Z,13.50
2022-12-05T01:16:44.209Z,12.65
2022-12-05T01:21:48.211Z,12.00
2022-12-05T01:26:49.672Z,12.18
2022-12-05T01:31:51.217Z,11.93
2022-12-05T01:36:52.902Z,11.85
2022-12-05T01:41:54.353Z,12.10
2022-12-05T01:46:56.420Z,12.68
2022-12-05T01:52:05.954Z,15.13
2022-12-05T01:57:10.492Z,13.68
2022-12-05T02:02:12.408Z,13.82
2022-12-05T02:07:13.852Z,12.50
2022-12-05T02:12:15.527Z,13.90
2022-12-05T02:17:25.693Z,12.07
2022-12-05T02:22:39.025Z,12.82
2022-12-05T02:27:40.432Z,13.48
2022-12-05T02:32:47.952Z,13.13
2022-12-05T02:38:07.964Z,13.32
2022-12-05T02:43:44.791Z,13.40
2022-12-05T02:48:47.789Z,13.50
2022-12-05T02:53:50.610Z,13.98
2022-12-05T02:58:54.179Z,13.55
2022-12-05T03:03:56.328Z,14.05
2022-12-05T03:09:00.914Z,13.80
2022-12-05T03:14:03.619Z,13.95
2022-12-05T03:19:13.144Z,14.60
2022-12-05T03:24:14.847Z,15.50
2022-12-05T03:29:34.760Z,15.77
2022-12-05T03:34:41.889Z,15.18
2022-12-05T03:39:45.530Z,16.00
2022-12-05T03:44:47.015Z,14.88
2022-12-05T03:49:51.451Z,14.25
2022-12-05T03:54:55.155Z,14.98
2022-12-05T03:59:59.272Z,15.45
2022-12-05T04:05:00.768Z,14.57
2022-12-05T04:10:06.402Z,14.60
2022-12-05T04:15:13.864Z,14.35
2022-12-05T04:20:36.562Z,14.07
2022-12-05T04:25:50.227Z,13.70
2022-12-05T04:30:54.420Z,13.30
2022-12-05T04:36:01.885Z,12.40
2022-12-05T04:41:05.260Z,11.48
2022-12-05T04:46:09.361Z,12.38
2022-12-05T04:51:14.913Z,12.15
2022-12-05T04:56:18.116Z,11.70
2022-12-05T05:01:25.069Z,11.90
2022-12-05T05:06:29.320Z,11.75
2022-12-05T05:11:32.795Z,10.18
2022-12-05T05:16:35.955Z,9.88
2022-12-05T05:21:38.606Z,9.65
2022-12-05T05:26:43.013Z,9.15
2022-12-05T05:31:44.829Z,9.05
2022-12-05T05:36:50.975Z,8.38
2022-12-05T05:41:52.403Z,8.63
2022-12-05T05:46:54.604Z,8.25
2022-12-05T05:51:56.082Z,7.85
2022-12-05T05:56:57.456Z,7.35
2022-12-05T06:01:58.844Z,9.70
2022-12-05T06:07:00.237Z,7.82
2022-12-05T06:12:01.788Z,7.65
2022-12-05T06:17:03.203Z,7.55
2022-12-05T06:22:04.623Z,7.18
2022-12-05T06:27:06.219Z,7.30
2022-12-05T06:32:07.793Z,8.13
2022-12-05T06:37:09.245Z,7.07
2022-12-05T06:42:10.734Z,7.00
2022-12-05T06:47:12.182Z,6.82
2022-12-05T06:52:13.664Z,7.28
2022-12-05T06:57:15.119Z,7.20
2022-12-05T07:02:16.569Z,7.00
2022-12-05T07:07:18.014Z,7.13
2022-12-05T07:12:19.560Z,6.60
2022-12-05T07:17:21.364Z,7.95
2022-12-05T07:22:23.402Z,7.47
2022-12-05T07:27:27.713Z,7.47
2022-12-05T07:32:33.591Z,6.68
2022-12-05T07:37:34.989Z,6.40
2022-12-05T07:42:36.436Z,7.18
2022-12-05T07:47:37.906Z,8.07
2022-12-05T07:52:39.537Z,8.07
2022-12-05T07:57:41.029Z,7.97
2022-12-05T08:02:42.503Z,7.55
2022-12-05T08:07:44.139Z,7.65
2022-12-05T08:12:45.576Z,7.03
2022-12-05T08:17:47.000Z,6.70
2022-12-05T08:22:51.426Z,7.50
2022-12-05T08:27:52.903Z,6.38
2022-12-05T08:32:54.279Z,7.13
2022-12-05T08:37:55.796Z,6.80
2022-12-05T08:42:58.044Z,6.05
2022-12-05T08:47:59.529Z,6.35
2022-12-05T08:53:00.975Z,6.38
2022-12-05T08:58:02.369Z,6.22
2022-12-05T09:03:04.106Z,6.32
2022-12-05T09:08:05.634Z,7.03
2022-12-05T09:13:07.077Z,6.68
2022-12-05T09:18:08.450Z,6.55
2022-12-05T09:23:15.723Z,6.82
2022-12-05T09:28:17.469Z,7.90
2022-12-05T09:33:19.004Z,6.68
2022-12-05T09:38:20.442Z,6.93
2022-12-05T09:43:29.965Z,6.25
2022-12-05T09:48:31.578Z,6.30
2022-12-05T09:53:38.749Z,6.40
2022-12-05T09:58:44.897Z,6.05
2022-12-05T10:04:07.359Z,5.68
2022-12-05T10:09:10.034Z,5.90
2022-12-05T10:14:14.167Z,5.90
2022-12-05T10:19:22.522Z,6.35
2022-12-05T10:24:29.720Z,6.25
2022-12-05T10:29:45.345Z,5.57
2022-12-05T10:34:46.866Z,6.57
2022-12-05T10:39:50.931Z,6.03
2022-12-05T10:45:01.118Z,6.45
2022-12-05T10:50:04.842Z,7.10
2022-12-05T10:55:06.711Z,7.60
2022-12-05T11:00:15.451Z,6.75
2022-12-05T11:05:27.005Z,8.80
2022-12-05T11:10:35.811Z,7.32
2022-12-05T11:15:44.220Z,7.13
2022-12-05T11:20:47.141Z,7.03
2022-12-05T11:25:48.786Z,8.00
2022-12-05T11:30:53.015Z,7.43
2022-12-05T11:35:55.589Z,7.35
2022-12-05T11:40:56.986Z,8.25
2022-12-05T11:46:04.251Z,8.18
2022-12-05T11:51:20.794Z,7.43
2022-12-05T11:56:40.770Z,7.28
2022-12-05T12:02:00.936Z,7.45
2022-12-05T12:12:13.641Z,7.32
2022-12-05T12:17:28.824Z,6.80
2022-12-05T12:22:50.538Z,7.15
2022-12-05T12:27:51.974Z,7.40
2022-12-05T12:32:53.350Z,7.22
2022-12-05T12:37:54.702Z,6.95
2022-12-05T12:43:05.258Z,6.63
2022-12-05T12:48:16.650Z,6.30
2022-12-05T12:53:23.924Z,6.65
2022-12-05T12:58:47.029Z,6.55
2022-12-05T13:03:51.532Z,7.20
2022-12-05T13:08:55.363Z,7.40
2022-12-05T13:13:58.095Z,7.80
2022-12-05T13:19:00.168Z,7.40
2022-12-05T13:24:03.653Z,6.63
2022-12-05T13:29:05.477Z,6.05
2022-12-05T13:34:26.892Z,6.28
2022-12-05T13:39:47.100Z,6.32
2022-12-05T13:49:52.972Z,5.78
2022-12-05T13:55:00.864Z,5.72
2022-12-05T14:00:08.719Z,5.05
2022-12-05T14:05:19.378Z,6.32
2022-12-05T14:10:22.027Z,6.38
2022-12-05T14:15:31.436Z,5.30
2022-12-05T14:20:45.141Z,5.13
2022-12-05T14:26:08.712Z,4.32
2022-12-05T14:31:13.612Z,4.82
2022-12-05T14:36:17.085Z,5.45
2022-12-05T14:41:27.433Z,4.80
2022-12-05T14:46:30.421Z,4.55
2022-12-05T14:51:31.873Z,4.60
2022-12-05T14:56:39.598Z,4.70
2022-12-05T15:01:44.460Z,5.80
2022-12-05T15:07:06.706Z,5.63
2022-12-05T15:12:20.954Z,5.38
2022-12-05T15:17:25.612Z,5.72
2022-12-05T15:22:28.063Z,5.32
2022-12-05T15:27:29.467Z,4.28
2022-12-05T15:32:30.984Z,4.43
2022-12-05T15:37:34.941Z,4.00
2022-12-05T15:43:06.299Z,4.38
2022-12-05T15:48:07.672Z,4.45
2022-12-05T15:53:20.702Z,4.63
2022-12-05T15:58:22.137Z,4.57
2022-12-05T16:03:31.035Z,4.40
2022-12-05T16:08:40.806Z,3.83
2022-12-05T16:13:43.681Z,4.13
2022-12-05T16:18:49.283Z,5.40
2022-12-05T16:23:59.516Z,4.40
2022-12-05T16:29:01.726Z,4.35
2022-12-05T16:34:05.509Z,4.65
2022-12-05T16:39:18.993Z,4.35
2022-12-05T16:44:32.943Z,4.13
2022-12-05T16:49:37.036Z,3.90
2022-12-05T16:54:41.124Z,3.50
2022-12-05T16:59:43.735Z,4.30
2022-12-05T17:04:46.900Z,4.43
2022-12-05T17:09:48.713Z,5.47
2022-12-05T17:14:50.194Z,4.30
2022-12-05T17:19:51.608Z,4.15
2022-12-05T17:24:53.052Z,4.47
2022-12-05T17:29:54.525Z,5.00
2022-12-05T17:34:55.922Z,4.40
2022-12-05T17:39:57.604Z,5.00
2022-12-05T17:44:59.417Z,4.53
2022-12-05T17:50:01.368Z,4.10
2022-12-05T17:55:02.886Z,4.65
2022-12-05T18:00:04.544Z,4.70
2022-12-05T18:05:06.127Z,8.80
2022-12-05T18:15:30.520Z,6.50
2022-12-05T18:20:31.930Z,5.40
2022-12-05T18:25:33.355Z,5.50
2022-12-05T18:30:34.764Z,5.20
2022-12-05T18:35:40.665Z,4.90
2022-12-05T18:40:42.231Z,5.15
2022-12-05T18:45:43.726Z,4.85
2022-12-05T18:50:45.150Z,4.75
2022-12-05T18:56:05.436Z,4.53
2022-12-05T19:01:09.749Z,5.60
2022-12-05T19:06:15.435Z,5.25
2022-12-05T19:11:17.544Z,5.32
2022-12-05T19:16:19.229Z,5.13
2022-12-05T19:21:20.919Z,5.10
2022-12-05T19:26:23.032Z,4.75
2022-12-05T19:31:25.499Z,4.47
2022-12-05T19:36:31.988Z,4.65
2022-12-05T19:41:34.584Z,4.95
2022-12-05T19:46:36.459Z,5.20
2022-12-05T19:51:38.156Z,4.68
2022-12-05T19:56:39.824Z,5.78
2022-12-05T20:01:41.373Z,4.95
2022-12-05T20:06:43.909Z,5.00
2022-12-05T20:11:50.918Z,4.63
2022-12-05T20:16:55.772Z,4.30
2022-12-05T20:21:58.739Z,4.55
2022-12-05T20:27:01.657Z,3.95
2022-12-05T20:32:03.393Z,3.45
2022-12-05T20:37:06.821Z,4.00
2022-12-05T20:42:08.386Z,3.80
2022-12-05T20:47:09.840Z,3.67
2022-12-05T20:52:11.230Z,4.20
2022-12-05T20:57:12.666Z,3.90
2022-12-05T21:02:14.205Z,3.97
2022-12-05T21:07:15.711Z,3.55
2022-12-05T21:12:17.140Z,3.53
2022-12-05T21:17:18.560Z,2.97
2022-12-05T21:22:19.984Z,4.18
2022-12-05T21:27:21.414Z,3.90
2022-12-05T21:32:22.878Z,3.03
2022-12-05T21:37:24.357Z,2.95
2022-12-05T21:42:25.779Z,3.25
2022-12-05T21:47:30.249Z,3.30
2022-12-05T21:52:39.288Z,3.88
2022-12-05T21:57:40.794Z,3.93
2022-12-05T22:02:42.286Z,11.15
2022-12-05T22:07:43.815Z,42.90
2022-12-05T22:12:45.313Z,31.52
2022-12-05T22:17:46.723Z,8.93
2022-12-05T22:22:48.145Z,3.88
2022-12-05T22:28:08.212Z,3.92
2022-12-05T22:33:09.635Z,5.50
2022-12-05T22:38:11.107Z,5.95
2022-12-05T22:43:12.540Z,15.05
2022-12-05T22:48:14.025Z,21.23
2022-12-05T22:53:16.507Z,17.73
2022-12-05T22:58:18.029Z,4.80
2022-12-05T23:03:19.919Z,2.80
2022-12-05T23:08:21.557Z,2.97
2022-12-05T23:13:23.169Z,3.40
2022-12-05T23:18:25.607Z,3.10
2022-12-05T23:23:27.097Z,3.80
2022-12-05T23:28:28.654Z,4.70
2022-12-05T23:33:30.150Z,3.70
2022-12-05T23:38:31.649Z,3.03
2022-12-05T23:43:34.051Z,2.65
2022-12-05T23:48:35.600Z,3.20
2022-12-05T23:53:37.798Z,2.50
2022-12-05T23:58:39.671Z,3.53
